Hauptseite
METAR-TAF:

METAR-TAF

Flughäfen :

London Southend Airport

London-Southend, England

Breite: 51-34N, Länge: 000-42E, Höhe: 15 m

Beobachtung

Neuester Wetterbericht von vor 1 Stunde und 6 Minuten, um 22:50 UTC
Wind 4 kt aus Nordwest
Temperatur 0°C
Luftfeuchtigkeit 93%
Luftdruck 996 hPa
Sichtweite: 8000 m

METAR: EGMC 222250Z 32004KT 8000 NSC 00/M01 Q0996

Zeit: 23:56 (23:56 UTC)

Prognose

Neuester Wetterbericht von vor 54 Minuten, um 23:02 UTC
Gültige Prognose vom 23 um 00 UTC bis 23 um 09 UTC
Wind 5 kt aus Nord/Nordwest
Sichtweite 10 km oder mehr
Leicht bewölkt in der Höhe von 2000 ft
Zeitweise
vom 23 um 00 UTC bis 23 um 06 UTC
Sichtweite: 8000 m
Durchbrochene Bewölkung in der Höhe von 800 ft

TAF: EGMC 222302Z 2300/2309 33005KT 9999 FEW020 TEMPO 2300/2306 8000 BKN008

Wetterbeobachtungen und Prognosen von mehr als 4000 Flughäfen (METAR und TAF Bericht).

Die verfügbaren Stationen werden durch gelbe und rote Markierungen auf der Karte dargestellt.

Führen Sie die Maus auf sie, um den Namen der Station zu sehen.

Darauf klicken, um die Beobachtung von Wetterbeobachtungen und Prognosen zu sehen.

Um die Karte zu ändern : klicken Sie auf den grünen Tasten mit einem schwarzen Kreuz Zum Vergrößern, auf den grünen Button mit einem Gedankenstrich zu verkleinern, oder auf die grünen Pfeile für benachbarte Karten.


METAR-TAF: